Time;durP1;ratioP1;P1;durP2;ratioP2;P2;SDS_P1;SDS_P2;PMS_P1;PMS_P2;Temp;Humidity;BMP_temperature;BMP_pressure;BME280_temperature;BME280_humidity;BME280_pressure;Samples;Min_cycle;Max_cycle;Signal;HPM_P1;HPM_P2
2022/05/18 00:00:29;;;;;;;0.05;0.05;;;;;;;;;;5040127;28;19916;-82
2022/05/18 00:02:59;;;;;;;0.08;0.08;;;;;;;;;;5024031;28;20037;-82
2022/05/18 00:05:25;;;;;;;0.40;0.22;;;;;;;;;;5044851;28;20036;-82
2022/05/18 00:07:51;;;;;;;0.10;0.10;;;;;;;;;;5044820;28;20101;-82
2022/05/18 00:10:17;;;;;;;5.18;1.10;;;;;;;;;;5043445;28;20071;-82
2022/05/18 00:12:47;;;;;;;0.00;0.00;;;;;;;;;;5042335;28;20041;-82
2022/05/18 00:15:14;;;;;;;0.40;0.40;;;;;;;;;;5043696;28;20044;-84
2022/05/18 00:17:41;;;;;;;0.00;0.00;;;;;;;;;;5042217;28;20045;-81
2022/05/18 00:20:08;;;;;;;0.00;0.00;;;;;;;;;;5041088;28;20035;-82
2022/05/18 00:22:34;;;;;;;0.00;0.00;;;;;;;;;;5040050;28;20383;-81
2022/05/18 00:25:01;;;;;;;0.00;0.00;;;;;;;;;;5042873;28;20086;-81
2022/05/18 00:27:27;;;;;;;0.70;0.20;;;;;;;;;;5044499;28;20040;-81
2022/05/18 00:29:53;;;;;;;0.10;0.10;;;;;;;;;;5042755;28;20036;-81
2022/05/18 00:32:19;;;;;;;3.00;0.15;;;;;;;;;;5042177;28;20044;-81
2022/05/18 00:34:45;;;;;;;0.00;0.00;;;;;;;;;;5043181;28;20043;-81
2022/05/18 00:37:11;;;;;;;0.10;0.10;;;;;;;;;;5040084;28;20052;-80
2022/05/18 00:39:37;;;;;;;0.00;0.00;;;;;;;;;;5037089;28;20029;-80
2022/05/18 00:42:04;;;;;;;0.00;0.00;;;;;;;;;;5023725;28;20041;-81
2022/05/18 00:44:30;;;;;;;0.00;0.00;;;;;;;;;;5020599;28;20025;-81
2022/05/18 00:46:56;;;;;;;0.03;0.03;;;;;;;;;;5042327;28;20056;-81
2022/05/18 00:49:22;;;;;;;0.20;0.10;;;;;;;;;;5042081;28;20029;-80
2022/05/18 00:51:50;;;;;;;0.45;0.28;;;;;;;;;;5037727;28;20114;-82
2022/05/18 00:54:26;;;;;;;0.20;0.20;;;;;;;;;;5037894;28;20044;-81
2022/05/18 00:56:52;;;;;;;1.80;0.47;;;;;;;;;;5040753;28;20048;-82
2022/05/18 00:59:20;;;;;;;0.25;0.25;;;;;;;;;;5037004;28;20271;-82
2022/05/18 01:01:46;;;;;;;0.00;0.00;;;;;;;;;;5022691;28;20175;-82
2022/05/18 01:04:13;;;;;;;0.20;0.20;;;;;;;;;;5041551;28;20032;-82
2022/05/18 01:06:51;;;;;;;0.00;0.00;;;;;;;;;;5041022;28;20029;-82
2022/05/18 01:09:24;;;;;;;4.30;0.65;;;;;;;;;;5042724;28;20123;-81
2022/05/18 01:11:50;;;;;;;0.00;0.00;;;;;;;;;;5022113;28;20024;-80
2022/05/18 01:14:20;;;;;;;0.38;0.10;;;;;;;;;;5040789;28;20071;-81
2022/05/18 01:16:46;;;;;;;0.20;0.20;;;;;;;;;;5035410;28;20429;-80
2022/05/18 01:19:32;;;;;;;0.30;0.28;;;;;;;;;;5037807;28;20025;-81
2022/05/18 01:21:58;;;;;;;;;;;;;;;;;;5025219;28;20043;-81
2022/05/18 01:24:32;;;;;;;2.00;1.48;;;;;;;;;;5039918;28;19924;-81
2022/05/18 01:27:00;;;;;;;0.20;0.20;;;;;;;;;;5035754;28;20061;-81
2022/05/18 01:29:28;;;;;;;0.10;0.10;;;;;;;;;;5041626;28;20063;-81
2022/05/18 01:31:59;;;;;;;0.65;0.63;;;;;;;;;;5040270;28;20069;-81
2022/05/18 01:34:30;;;;;;;0.10;0.10;;;;;;;;;;5041253;28;20425;-81
2022/05/18 01:36:56;;;;;;;0.08;0.08;;;;;;;;;;5039857;28;20120;-81
2022/05/18 01:39:37;;;;;;;0.10;0.10;;;;;;;;;;5040444;28;20028;-77
2022/05/18 01:42:03;;;;;;;0.80;0.65;;;;;;;;;;5038442;28;20029;-77
2022/05/18 01:44:29;;;;;;;0.35;0.22;;;;;;;;;;5039257;28;20028;-77
2022/05/18 01:46:55;;;;;;;1.95;0.98;;;;;;;;;;5033240;28;20131;-79
2022/05/18 01:49:21;;;;;;;0.08;0.08;;;;;;;;;;5017573;28;20429;-78
2022/05/18 01:51:50;;;;;;;0.30;0.30;;;;;;;;;;5041175;28;20032;-79
2022/05/18 01:54:16;;;;;;;1.27;0.57;;;;;;;;;;5022288;28;20952;-78
2022/05/18 01:56:43;;;;;;;0.10;0.10;;;;;;;;;;5038382;28;20500;-79
2022/05/18 01:59:09;;;;;;;0.17;0.17;;;;;;;;;;5042062;28;20778;-80
2022/05/18 02:01:35;;;;;;;0.08;0.08;;;;;;;;;;5036196;28;20090;-77
2022/05/18 02:04:01;;;;;;;0.13;0.13;;;;;;;;;;5038763;28;20039;-77
2022/05/18 02:06:29;;;;;;;0.35;0.35;;;;;;;;;;5039465;28;20108;-77
2022/05/18 02:08:56;;;;;;;0.20;0.20;;;;;;;;;;5034934;28;20029;-77
2022/05/18 02:11:22;;;;;;;0.43;0.40;;;;;;;;;;5040659;28;20028;-77
2022/05/18 02:13:51;;;;;;;0.10;0.10;;;;;;;;;;5041306;28;20029;-77
2022/05/18 02:16:17;;;;;;;0.13;0.13;;;;;;;;;;5039169;28;20033;-78
2022/05/18 02:18:43;;;;;;;0.00;0.00;;;;;;;;;;5039185;28;20033;-78
2022/05/18 02:21:10;;;;;;;0.13;0.13;;;;;;;;;;5038314;28;20028;-78
2022/05/18 02:23:37;;;;;;;0.65;0.65;;;;;;;;;;5035056;28;20051;-78
2022/05/18 02:26:10;;;;;;;6.10;1.15;;;;;;;;;;5039453;28;20067;-78
2022/05/18 02:28:36;;;;;;;0.13;0.13;;;;;;;;;;5035807;28;20045;-78
2022/05/18 02:31:03;;;;;;;0.10;0.08;;;;;;;;;;5039786;28;20065;-77
2022/05/18 02:33:29;;;;;;;1.90;1.08;;;;;;;;;;5037917;28;20393;-78
2022/05/18 02:35:55;;;;;;;0.10;0.10;;;;;;;;;;5041683;28;20029;-78
2022/05/18 02:38:21;;;;;;;0.08;0.08;;;;;;;;;;5036740;28;20037;-76
2022/05/18 02:40:47;;;;;;;0.35;0.35;;;;;;;;;;5040374;28;20141;-76
2022/05/18 02:43:13;;;;;;;0.00;0.00;;;;;;;;;;5034875;28;20049;-76
2022/05/18 02:45:39;;;;;;;0.00;0.00;;;;;;;;;;5034825;28;20315;-76
2022/05/18 02:48:06;;;;;;;3.55;0.57;;;;;;;;;;5039833;28;20059;-77
2022/05/18 02:50:33;;;;;;;2.55;0.65;;;;;;;;;;5038375;28;20043;-77
2022/05/18 02:52:59;;;;;;;0.32;0.20;;;;;;;;;;5038467;28;20056;-77
2022/05/18 02:58:10;;;;;;;1.58;1.30;;;;;;;;;;5039719;28;20546;-78
2022/05/18 03:00:36;;;;;;;0.13;0.13;;;;;;;;;;5021053;28;20025;-78
2022/05/18 03:03:02;;;;;;;0.90;0.43;;;;;;;;;;5033341;28;20519;-78
2022/05/18 03:05:29;;;;;;;0.25;0.25;;;;;;;;;;5035211;28;20033;-79
2022/05/18 03:07:58;;;;;;;0.45;0.45;;;;;;;;;;5038683;28;20029;-79
2022/05/18 03:10:24;;;;;;;0.08;0.08;;;;;;;;;;5038506;28;20027;-79
2022/05/18 03:12:50;;;;;;;0.13;0.13;;;;;;;;;;5038973;28;20060;-80
2022/05/18 03:15:16;;;;;;;0.00;0.00;;;;;;;;;;5038047;28;20053;-79
2022/05/18 03:17:42;;;;;;;0.43;0.40;;;;;;;;;;5035640;28;20055;-78
2022/05/18 03:23:33;;;;;;;0.28;0.28;;;;;;;;;;5042975;28;20021;-78
2022/05/18 03:25:40;;;;;;;0.10;0.10;;;;;;;;;;5041461;28;20079;-79
2022/05/18 03:28:06;;;;;;;1.10;0.85;;;;;;;;;;5042062;28;20048;-79
2022/05/18 03:30:32;;;;;;;0.10;0.10;;;;;;;;;;5041321;28;20028;-79
2022/05/18 03:32:58;;;;;;;0.28;0.28;;;;;;;;;;5024327;28;20037;-79
2022/05/18 03:35:24;;;;;;;0.30;0.30;;;;;;;;;;5021187;28;20037;-78
2022/05/18 03:37:51;;;;;;;0.50;0.47;;;;;;;;;;5041081;28;20048;-79
2022/05/18 03:40:17;;;;;;;1.27;0.60;;;;;;;;;;5042793;28;20037;-78
2022/05/18 03:42:43;;;;;;;0.47;0.47;;;;;;;;;;5042350;28;20132;-78
2022/05/18 03:45:09;;;;;;;0.30;0.20;;;;;;;;;;5041448;28;20044;-79
2022/05/18 03:47:35;;;;;;;0.17;0.17;;;;;;;;;;5022001;28;20032;-78
2022/05/18 03:50:01;;;;;;;0.85;0.82;;;;;;;;;;5041188;28;20040;-78
2022/05/18 03:52:27;;;;;;;1.00;0.30;;;;;;;;;;5040793;28;20063;-78
2022/05/18 03:54:53;;;;;;;0.10;0.10;;;;;;;;;;5040976;28;20095;-78
2022/05/18 03:57:19;;;;;;;0.00;0.00;;;;;;;;;;5042609;28;20040;-78
2022/05/18 03:59:45;;;;;;;0.10;0.10;;;;;;;;;;5040937;28;20826;-78
2022/05/18 04:02:11;;;;;;;7.85;2.10;;;;;;;;;;5037568;28;20025;-79
2022/05/18 04:04:38;;;;;;;0.35;0.35;;;;;;;;;;5040140;28;20032;-78
2022/05/18 04:07:04;;;;;;;0.47;0.47;;;;;;;;;;5015689;28;20140;-79
2022/05/18 04:09:30;;;;;;;0.20;0.20;;;;;;;;;;5039475;28;20806;-80
2022/05/18 04:11:56;;;;;;;15.55;1.85;;;;;;;;;;5040717;28;20039;-79
2022/05/18 04:14:22;;;;;;;0.30;0.30;;;;;;;;;;5041772;28;20093;-79
2022/05/18 04:16:49;;;;;;;0.38;0.38;;;;;;;;;;5038626;28;20115;-79
2022/05/18 04:19:15;;;;;;;;;;;;;;;;;;5041579;28;20079;-79
2022/05/18 04:21:41;;;;;;;;;;;;;;;;;;5040755;28;19912;-79
2022/05/18 04:24:07;;;;;;;1.65;1.00;;;;;;;;;;5040471;28;19913;-79
2022/05/18 04:26:33;;;;;;;0.10;0.10;;;;;;;;;;5035730;28;20431;-79
2022/05/18 04:28:59;;;;;;;0.00;0.00;;;;;;;;;;5042467;28;20033;-79
2022/05/18 04:31:25;;;;;;;0.28;0.28;;;;;;;;;;5035751;28;20150;-80
2022/05/18 04:33:51;;;;;;;0.38;0.38;;;;;;;;;;5004601;28;20040;-78
2022/05/18 04:36:17;;;;;;;0.13;0.13;;;;;;;;;;5042522;28;20040;-77
2022/05/18 04:38:43;;;;;;;0.20;0.20;;;;;;;;;;5039796;28;21808;-77
2022/05/18 04:41:11;;;;;;;0.80;0.73;;;;;;;;;;5020682;28;20044;-82
2022/05/18 04:43:38;;;;;;;0.50;0.17;;;;;;;;;;5032516;28;20091;-81
2022/05/18 04:46:04;;;;;;;0.10;0.10;;;;;;;;;;5037467;28;20497;-83
2022/05/18 04:48:31;;;;;;;0.10;0.10;;;;;;;;;;5040895;28;20796;-80
2022/05/18 04:50:57;;;;;;;;;;;;;;;;;;5039429;28;20029;-81
2022/05/18 04:53:23;;;;;;;0.00;0.00;;;;;;;;;;5037482;28;19919;-80
2022/05/18 04:55:49;;;;;;;0.20;0.20;;;;;;;;;;5033271;28;20029;-80
2022/05/18 04:58:15;;;;;;;;;;;;;;;;;;5042688;28;20037;-80
2022/05/18 05:00:43;;;;;;;2.45;0.70;;;;;;;;;;5038836;28;19939;-79
2022/05/18 05:03:09;;;;;;;0.90;0.60;;;;;;;;;;5042329;28;20093;-80
2022/05/18 05:05:35;;;;;;;0.00;0.00;;;;;;;;;;5041188;28;20774;-80
2022/05/18 05:08:01;;;;;;;0.00;0.00;;;;;;;;;;5042301;28;20068;-81
2022/05/18 05:10:27;;;;;;;0.20;0.20;;;;;;;;;;5037310;28;20033;-82
2022/05/18 05:12:53;;;;;;;0.00;0.00;;;;;;;;;;5036710;28;20106;-79
2022/05/18 05:15:20;;;;;;;0.15;0.10;;;;;;;;;;5019794;28;20128;-78
2022/05/18 05:17:46;;;;;;;0.15;0.10;;;;;;;;;;5039843;28;20084;-79
2022/05/18 05:20:13;;;;;;;0.17;0.17;;;;;;;;;;5035695;28;20057;-77
2022/05/18 05:22:39;;;;;;;0.13;0.13;;;;;;;;;;5035555;28;20115;-78
2022/05/18 05:25:05;;;;;;;0.30;0.30;;;;;;;;;;5038018;28;20610;-79
2022/05/18 05:27:31;;;;;;;0.05;0.05;;;;;;;;;;5036568;28;20093;-77
2022/05/18 05:29:58;;;;;;;0.00;0.00;;;;;;;;;;5037763;28;20029;-78
2022/05/18 05:32:25;;;;;;;0.10;0.10;;;;;;;;;;5036686;28;20108;-78
2022/05/18 05:34:51;;;;;;;3.92;1.00;;;;;;;;;;5034073;28;20029;-78
2022/05/18 05:37:17;;;;;;;0.10;0.10;;;;;;;;;;5018435;28;20037;-78
2022/05/18 05:39:43;;;;;;;0.03;0.03;;;;;;;;;;5038239;28;20028;-78
2022/05/18 05:42:09;;;;;;;0.20;0.20;;;;;;;;;;5036508;28;20029;-76
2022/05/18 05:44:36;;;;;;;0.10;0.10;;;;;;;;;;5041308;28;20028;-75
2022/05/18 05:47:03;;;;;;;0.00;0.00;;;;;;;;;;5033766;28;20618;-75
2022/05/18 05:49:29;;;;;;;0.10;0.10;;;;;;;;;;5027604;28;20032;-75
2022/05/18 05:51:55;;;;;;;0.00;0.00;;;;;;;;;;5030238;28;20039;-75
2022/05/18 05:54:22;;;;;;;2.38;0.55;;;;;;;;;;5043240;28;20040;-75
2022/05/18 05:56:48;;;;;;;0.00;0.00;;;;;;;;;;5029565;28;20042;-75
2022/05/18 05:59:16;;;;;;;11.82;1.75;;;;;;;;;;5031517;28;20061;-75
2022/05/18 06:01:42;;;;;;;0.55;0.35;;;;;;;;;;5037726;28;20036;-76
2022/05/18 06:04:10;;;;;;;0.10;0.10;;;;;;;;;;5042141;28;20395;-76
2022/05/18 06:06:37;;;;;;;0.22;0.10;;;;;;;;;;5028301;28;20141;-77
2022/05/18 06:09:07;;;;;;;1.00;0.85;;;;;;;;;;5030394;28;20079;-77
2022/05/18 06:11:33;;;;;;;0.43;0.43;;;;;;;;;;5038372;28;20029;-77
2022/05/18 06:13:59;;;;;;;0.00;0.00;;;;;;;;;;5042881;28;20028;-78
2022/05/18 06:16:25;;;;;;;0.30;0.30;;;;;;;;;;5043365;28;20040;-78
2022/05/18 06:18:51;;;;;;;0.10;0.10;;;;;;;;;;5043095;28;20040;-77
2022/05/18 06:21:17;;;;;;;2.22;0.90;;;;;;;;;;5042338;28;20068;-78
2022/05/18 06:23:43;;;;;;;0.10;0.10;;;;;;;;;;5042828;28;20025;-77
2022/05/18 06:26:09;;;;;;;0.00;0.00;;;;;;;;;;5039882;28;20813;-77
2022/05/18 06:28:36;;;;;;;0.00;0.00;;;;;;;;;;5042678;28;20060;-77
2022/05/18 06:31:03;;;;;;;0.68;0.20;;;;;;;;;;5040464;28;20040;-77
2022/05/18 06:33:29;;;;;;;4.32;0.73;;;;;;;;;;5042285;28;20021;-78
2022/05/18 06:35:55;;;;;;;0.32;0.32;;;;;;;;;;5043506;28;20035;-80
2022/05/18 06:38:23;;;;;;;1.00;0.43;;;;;;;;;;5042856;28;20131;-79
2022/05/18 06:43:34;;;;;;;2.05;0.80;;;;;;;;;;5033658;28;20259;-76
2022/05/18 06:46:01;;;;;;;0.15;0.15;;;;;;;;;;5037686;28;20049;-77
2022/05/18 06:48:27;;;;;;;0.08;0.08;;;;;;;;;;5037988;28;20025;-78
2022/05/18 06:50:53;;;;;;;;;;;;;;;;;;5042342;28;20110;-80
2022/05/18 06:53:19;;;;;;;0.10;0.10;;;;;;;;;;5037621;28;19966;-77
2022/05/18 06:55:47;;;;;;;0.75;0.43;;;;;;;;;;5039270;28;20552;-77
2022/05/18 06:58:13;;;;;;;0.00;0.00;;;;;;;;;;5034386;28;20056;-77
2022/05/18 07:00:39;;;;;;;0.15;0.15;;;;;;;;;;5044566;28;20131;-77
2022/05/18 07:03:05;;;;;;;0.20;0.20;;;;;;;;;;5045134;28;20119;-77
2022/05/18 07:05:31;;;;;;;;;;;;;;;;;;5045419;28;20025;-78
2022/05/18 07:07:57;;;;;;;0.10;0.10;;;;;;;;;;5044337;28;19916;-78
2022/05/18 07:10:26;;;;;;;;;;;;;;;;;;5044857;28;20036;-78
2022/05/18 07:12:53;;;;;;;0.17;0.17;;;;;;;;;;5025951;28;19973;-78
2022/05/18 07:15:19;;;;;;;0.30;0.30;;;;;;;;;;5044689;28;20028;-78
2022/05/18 07:17:45;;;;;;;0.10;0.10;;;;;;;;;;5028425;28;20041;-78
2022/05/18 07:20:11;;;;;;;;;;;;;;;;;;5044509;28;20041;-78
2022/05/18 07:22:37;;;;;;;0.10;0.10;;;;;;;;;;5043816;28;20680;-78
2022/05/18 07:25:03;;;;;;;;;;;;;;;;;;5044359;28;20029;-78
2022/05/18 07:27:30;;;;;;;0.00;0.00;;;;;;;;;;5044200;28;19913;-78
2022/05/18 07:29:56;;;;;;;0.00;0.00;;;;;;;;;;5044994;28;20500;-78
2022/05/18 07:32:22;;;;;;;;;;;;;;;;;;5044364;28;20036;-78
2022/05/18 07:34:48;;;;;;;0.20;0.20;;;;;;;;;;5043586;28;20703;-78
2022/05/18 07:37:15;;;;;;;0.00;0.00;;;;;;;;;;5043747;28;20044;-78
2022/05/18 07:39:42;;;;;;;0.65;0.52;;;;;;;;;;5044295;28;20028;-80
2022/05/18 07:42:08;;;;;;;0.10;0.10;;;;;;;;;;5025583;28;20586;-81
2022/05/18 07:44:35;;;;;;;0.03;0.03;;;;;;;;;;5044034;28;20439;-80
2022/05/18 07:47:03;;;;;;;0.52;0.35;;;;;;;;;;4994957;28;1416983;-80
2022/05/18 07:49:29;;;;;;;1.25;0.60;;;;;;;;;;5027050;28;20064;-80
2022/05/18 07:51:55;;;;;;;0.10;0.10;;;;;;;;;;5044795;28;20021;-80
2022/05/18 07:54:21;;;;;;;0.10;0.10;;;;;;;;;;5044343;28;20406;-80
2022/05/18 07:56:47;;;;;;;0.73;0.52;;;;;;;;;;5045058;28;20036;-80
2022/05/18 07:59:14;;;;;;;0.35;0.35;;;;;;;;;;5044507;28;20048;-80
2022/05/18 08:01:40;;;;;;;0.10;0.10;;;;;;;;;;5044912;28;20033;-81
2022/05/18 08:04:06;;;;;;;17.40;1.15;;;;;;;;;;5044355;28;20167;-81
2022/05/18 08:06:33;;;;;;;0.93;0.75;;;;;;;;;;5044680;28;20120;-80
2022/05/18 08:08:59;;;;;;;0.20;0.20;;;;;;;;;;5045190;28;20036;-80
2022/05/18 08:16:55;;;;;;;0.55;0.20;;;;;;;;;;5044560;28;20612;-80
2022/05/18 08:19:21;;;;;;;0.20;0.20;;;;;;;;;;5044680;28;20538;-81
2022/05/18 08:21:48;;;;;;;0.00;0.00;;;;;;;;;;5044532;28;20029;-81
2022/05/18 08:24:15;;;;;;;0.00;0.00;;;;;;;;;;5044709;28;20036;-80
2022/05/18 08:26:41;;;;;;;0.15;0.15;;;;;;;;;;5043416;28;20033;-81
2022/05/18 08:29:07;;;;;;;0.52;0.32;;;;;;;;;;5044499;28;20037;-81
2022/05/18 08:31:34;;;;;;;0.38;0.20;;;;;;;;;;5044220;28;20068;-80
2022/05/18 08:34:00;;;;;;;0.00;0.00;;;;;;;;;;5044657;28;20029;-80
2022/05/18 08:36:26;;;;;;;1.00;0.38;;;;;;;;;;5026088;28;20108;-81
2022/05/18 08:38:56;;;;;;;0.00;0.00;;;;;;;;;;5045003;28;20122;-81
2022/05/18 08:41:25;;;;;;;0.20;0.03;;;;;;;;;;5044848;28;20178;-81
2022/05/18 08:43:56;;;;;;;0.05;0.05;;;;;;;;;;5044144;28;20037;-80
2022/05/18 08:46:25;;;;;;;0.00;0.00;;;;;;;;;;5043965;28;20102;-81
2022/05/18 08:49:10;;;;;;;0.00;0.00;;;;;;;;;;5044442;28;20028;-81
2022/05/18 08:51:37;;;;;;;0.50;0.30;;;;;;;;;;5027449;28;20455;-81
2022/05/18 08:54:07;;;;;;;0.20;0.20;;;;;;;;;;5045508;28;20041;-80
2022/05/18 08:56:37;;;;;;;0.10;0.10;;;;;;;;;;5045544;28;20040;-81
2022/05/18 08:59:05;;;;;;;0.00;0.00;;;;;;;;;;5044900;28;20056;-81
2022/05/18 09:01:46;;;;;;;0.80;0.70;;;;;;;;;;5045048;28;20132;-80
2022/05/18 09:04:24;;;;;;;0.32;0.32;;;;;;;;;;5027208;28;20182;-81
2022/05/18 09:06:52;;;;;;;0.25;0.20;;;;;;;;;;5044875;28;20043;-80
2022/05/18 09:12:12;;;;;;;0.43;0.22;;;;;;;;;;5042222;28;20093;-80
2022/05/18 09:14:39;;;;;;;0.05;0.05;;;;;;;;;;5038639;28;20523;-80
2022/05/18 09:17:16;;;;;;;0.00;0.00;;;;;;;;;;5043234;28;20047;-81
2022/05/18 09:19:57;;;;;;;0.10;0.10;;;;;;;;;;5044173;28;20037;-80
2022/05/18 09:22:26;;;;;;;0.03;0.03;;;;;;;;;;5043682;28;20104;-80
2022/05/18 09:25:02;;;;;;;0.25;0.25;;;;;;;;;;5044117;28;20033;-80
2022/05/18 09:27:39;;;;;;;0.32;0.10;;;;;;;;;;5025400;28;20454;-81
2022/05/18 09:30:05;;;;;;;0.30;0.08;;;;;;;;;;5040911;28;20067;-80
2022/05/18 09:32:31;;;;;;;0.32;0.25;;;;;;;;;;5044406;28;20025;-81
2022/05/18 09:35:03;;;;;;;0.55;0.40;;;;;;;;;;5043824;28;20036;-80
2022/05/18 09:37:33;;;;;;;0.05;0.05;;;;;;;;;;5043662;28;20063;-80
2022/05/18 09:40:02;;;;;;;0.05;0.00;;;;;;;;;;5044202;28;20021;-80
2022/05/18 09:42:31;;;;;;;0.30;0.20;;;;;;;;;;5043220;28;20116;-81
2022/05/18 09:45:04;;;;;;;0.73;0.55;;;;;;;;;;5035140;28;20570;-80
2022/05/18 09:47:33;;;;;;;0.00;0.00;;;;;;;;;;5043853;28;20047;-80
2022/05/18 09:50:04;;;;;;;0.22;0.22;;;;;;;;;;5043107;28;20033;-80
2022/05/18 09:52:31;;;;;;;0.32;0.20;;;;;;;;;;5042502;28;20068;-80
2022/05/18 09:54:58;;;;;;;0.35;0.20;;;;;;;;;;5042997;28;20040;-80
2022/05/18 09:57:32;;;;;;;1.52;1.27;;;;;;;;;;5043252;28;20040;-80
2022/05/18 10:00:00;;;;;;;0.55;0.25;;;;;;;;;;5039749;28;20056;-80
2022/05/18 10:08:01;;;;;;;0.05;0.05;;;;;;;;;;5043641;28;20135;-80
2022/05/18 10:10:32;;;;;;;0.25;0.25;;;;;;;;;;5042597;28;20079;-80
2022/05/18 10:13:00;;;;;;;1.27;0.63;;;;;;;;;;5024927;28;20530;-80
2022/05/18 10:15:26;;;;;;;0.00;0.00;;;;;;;;;;5043234;28;20058;-80
2022/05/18 10:18:00;;;;;;;1.35;0.10;;;;;;;;;;5043478;28;20554;-80
2022/05/18 10:20:28;;;;;;;0.80;0.40;;;;;;;;;;5042651;28;20261;-80
2022/05/18 10:22:54;;;;;;;0.80;0.50;;;;;;;;;;5043208;28;20033;-80
2022/05/18 10:25:26;;;;;;;0.10;0.10;;;;;;;;;;5042590;28;20176;-80
2022/05/18 10:27:53;;;;;;;0.10;0.10;;;;;;;;;;5042961;28;20044;-80
2022/05/18 10:30:30;;;;;;;0.10;0.10;;;;;;;;;;5043048;28;20028;-81
2022/05/18 10:32:59;;;;;;;0.85;0.10;;;;;;;;;;5043429;28;20430;-80
2022/05/18 10:35:33;;;;;;;3.72;0.82;;;;;;;;;;5024770;28;20029;-80
2022/05/18 10:38:02;;;;;;;0.28;0.20;;;;;;;;;;5042805;28;20041;-80
2022/05/18 10:40:29;;;;;;;0.45;0.32;;;;;;;;;;5042966;28;20032;-81
2022/05/18 10:42:56;;;;;;;0.43;0.43;;;;;;;;;;5042669;28;20501;-81
2022/05/18 10:45:25;;;;;;;2.50;0.55;;;;;;;;;;5042386;28;20044;-80
2022/05/18 10:47:52;;;;;;;0.30;0.30;;;;;;;;;;5043466;28;20033;-81
2022/05/18 10:50:24;;;;;;;0.00;0.00;;;;;;;;;;5042158;28;20033;-80
2022/05/18 10:53:01;;;;;;;0.10;0.10;;;;;;;;;;5042133;28;20033;-80
2022/05/18 10:55:29;;;;;;;0.15;0.15;;;;;;;;;;5042178;28;20516;-80
2022/05/18 10:57:57;;;;;;;0.10;0.03;;;;;;;;;;5042315;28;20037;-81
2022/05/18 11:00:24;;;;;;;0.60;0.40;;;;;;;;;;5042549;28;20033;-80
2022/05/18 11:03:15;;;;;;;0.00;0.00;;;;;;;;;;5042879;28;20029;-81
2022/05/18 11:05:45;;;;;;;0.25;0.25;;;;;;;;;;5042558;28;20029;-81
2022/05/18 11:08:14;;;;;;;1.35;0.90;;;;;;;;;;5042301;28;20037;-80
2022/05/18 11:10:48;;;;;;;0.38;0.38;;;;;;;;;;5024215;28;20036;-80
2022/05/18 11:13:21;;;;;;;0.68;0.32;;;;;;;;;;5037803;28;20033;-81
2022/05/18 11:15:51;;;;;;;0.15;0.15;;;;;;;;;;5042378;28;20040;-81
2022/05/18 11:18:29;;;;;;;0.17;0.17;;;;;;;;;;5042114;28;20033;-80
2022/05/18 11:20:58;;;;;;;1.65;0.50;;;;;;;;;;5042895;28;20028;-80
2022/05/18 11:23:42;;;;;;;0.30;0.30;;;;;;;;;;5041833;28;20021;-80
2022/05/18 11:26:17;;;;;;;0.40;0.40;;;;;;;;;;5041894;28;20142;-80
2022/05/18 11:28:58;;;;;;;2.72;1.23;;;;;;;;;;5041913;28;20029;-80
2022/05/18 11:31:35;;;;;;;0.35;0.35;;;;;;;;;;5041858;28;20032;-80
2022/05/18 11:34:25;;;;;;;0.25;0.25;;;;;;;;;;5041180;28;20029;-80
2022/05/18 11:37:13;;;;;;;0.10;0.10;;;;;;;;;;4943456;28;20043;-80
2022/05/18 11:39:39;;;;;;;0.08;0.08;;;;;;;;;;4928956;28;20069;-80
2022/05/18 11:42:05;;;;;;;0.40;0.40;;;;;;;;;;4948265;28;20114;-80
2022/05/18 11:44:43;;;;;;;0.17;0.17;;;;;;;;;;4949553;28;20038;-80
2022/05/18 11:47:12;;;;;;;0.10;0.10;;;;;;;;;;4948837;28;20035;-81
2022/05/18 11:49:41;;;;;;;0.60;0.30;;;;;;;;;;4949076;28;20166;-80
2022/05/18 11:52:25;;;;;;;0.77;0.60;;;;;;;;;;4948721;28;20974;-80
2022/05/18 11:54:57;;;;;;;0.00;0.00;;;;;;;;;;4946364;28;20050;-80
2022/05/18 11:57:26;;;;;;;0.10;0.10;;;;;;;;;;4945019;28;20640;-80
2022/05/18 12:00:02;;;;;;;0.38;0.32;;;;;;;;;;4949219;28;20031;-80
2022/05/18 12:02:48;;;;;;;0.20;0.20;;;;;;;;;;4948457;28;20054;-80
2022/05/18 12:05:26;;;;;;;0.82;0.40;;;;;;;;;;4948092;28;20047;-80
2022/05/18 12:07:57;;;;;;;0.32;0.32;;;;;;;;;;4948214;28;20576;-80
2022/05/18 12:10:23;;;;;;;0.30;0.30;;;;;;;;;;4948402;28;20918;-80
2022/05/18 12:13:09;;;;;;;0.45;0.45;;;;;;;;;;4948869;28;20118;-80
2022/05/18 12:15:54;;;;;;;0.00;0.00;;;;;;;;;;5015766;28;20041;-80
2022/05/18 12:18:20;;;;;;;0.13;0.13;;;;;;;;;;5044092;28;20028;-80
2022/05/18 12:21:02;;;;;;;0.22;0.10;;;;;;;;;;5045142;28;20043;-80
2022/05/18 12:23:32;;;;;;;0.30;0.22;;;;;;;;;;5044651;28;20128;-80
2022/05/18 12:25:58;;;;;;;0.10;0.10;;;;;;;;;;5044037;28;20033;-80
2022/05/18 12:28:25;;;;;;;0.40;0.30;;;;;;;;;;5044231;28;20029;-80
2022/05/18 12:30:52;;;;;;;0.10;0.10;;;;;;;;;;5043840;28;20029;-80
2022/05/18 12:33:19;;;;;;;0.10;0.10;;;;;;;;;;5026396;28;20036;-80
2022/05/18 12:36:03;;;;;;;0.65;0.30;;;;;;;;;;5044782;28;20044;-80
2022/05/18 12:38:32;;;;;;;0.10;0.10;;;;;;;;;;5044213;28;20049;-80
2022/05/18 12:41:03;;;;;;;0.13;0.13;;;;;;;;;;5044215;28;20289;-78
2022/05/18 12:43:33;;;;;;;0.30;0.20;;;;;;;;;;5043878;28;20027;-78
2022/05/18 12:46:03;;;;;;;0.15;0.10;;;;;;;;;;5025301;28;20045;-78
2022/05/18 12:48:37;;;;;;;0.00;0.00;;;;;;;;;;5043878;28;20093;-77
2022/05/18 12:51:06;;;;;;;0.00;0.00;;;;;;;;;;5039459;28;20578;-78
2022/05/18 12:53:43;;;;;;;0.00;0.00;;;;;;;;;;5043848;28;20032;-78
2022/05/18 12:56:18;;;;;;;0.10;0.10;;;;;;;;;;5043976;28;20025;-77
2022/05/18 12:58:46;;;;;;;0.50;0.15;;;;;;;;;;5043879;28;20044;-78
2022/05/18 13:01:22;;;;;;;0.00;0.00;;;;;;;;;;5043491;28;20122;-77
2022/05/18 13:03:51;;;;;;;0.00;0.00;;;;;;;;;;5043784;28;20033;-77
2022/05/18 13:06:24;;;;;;;0.25;0.20;;;;;;;;;;5043673;28;20024;-78
2022/05/18 13:09:03;;;;;;;0.10;0.00;;;;;;;;;;5043352;28;20040;-77
2022/05/18 13:11:34;;;;;;;0.10;0.10;;;;;;;;;;5043760;28;20052;-77
2022/05/18 13:14:04;;;;;;;0.08;0.08;;;;;;;;;;5025340;28;20132;-78
2022/05/18 13:16:39;;;;;;;6.85;0.40;;;;;;;;;;5037090;28;20036;-77
2022/05/18 13:19:15;;;;;;;0.20;0.20;;;;;;;;;;5043370;28;20565;-78
2022/05/18 13:21:46;;;;;;;1.02;0.22;;;;;;;;;;5042949;28;20733;-77
2022/05/18 13:24:14;;;;;;;1.48;0.77;;;;;;;;;;5042877;28;20036;-77
2022/05/18 13:26:44;;;;;;;0.00;0.00;;;;;;;;;;5043779;28;20039;-77
2022/05/18 13:29:13;;;;;;;0.10;0.10;;;;;;;;;;5043064;28;20037;-77
2022/05/18 13:31:40;;;;;;;0.00;0.00;;;;;;;;;;5024854;28;20475;-77
2022/05/18 13:34:14;;;;;;;0.20;0.20;;;;;;;;;;5042968;28;20044;-78
2022/05/18 13:36:51;;;;;;;1.27;0.35;;;;;;;;;;5042747;28;20048;-77
2022/05/18 13:39:18;;;;;;;0.20;0.20;;;;;;;;;;5043167;28;20071;-79
2022/05/18 13:41:46;;;;;;;0.22;0.22;;;;;;;;;;5041644;28;20032;-80
2022/05/18 13:44:12;;;;;;;0.00;0.00;;;;;;;;;;5042312;28;20055;-80
2022/05/18 13:46:38;;;;;;;0.22;0.22;;;;;;;;;;5042648;28;20056;-80
2022/05/18 13:49:04;;;;;;;;;;;;;;;;;;5043406;28;20029;-80
2022/05/18 13:51:33;;;;;;;0.10;0.10;;;;;;;;;;5043204;28;19990;-80
2022/05/18 13:54:00;;;;;;;0.10;0.10;;;;;;;;;;5018169;28;20033;-80
2022/05/18 13:56:28;;;;;;;0.50;0.30;;;;;;;;;;5042535;28;20033;-80
2022/05/18 13:58:58;;;;;;;0.47;0.30;;;;;;;;;;5042502;28;20057;-80
2022/05/18 14:01:29;;;;;;;0.68;0.30;;;;;;;;;;5042467;28;20025;-80
2022/05/18 14:03:56;;;;;;;0.50;0.50;;;;;;;;;;5042305;28;20037;-80
2022/05/18 14:06:23;;;;;;;0.45;0.20;;;;;;;;;;5042018;28;20025;-80
2022/05/18 14:08:51;;;;;;;0.17;0.17;;;;;;;;;;5042850;28;20571;-80
2022/05/18 14:11:18;;;;;;;0.45;0.35;;;;;;;;;;5041705;28;20687;-80
2022/05/18 14:13:45;;;;;;;0.05;0.05;;;;;;;;;;5023584;28;20579;-80
2022/05/18 14:16:24;;;;;;;0.10;0.08;;;;;;;;;;5041841;28;20673;-80
2022/05/18 14:18:53;;;;;;;0.47;0.32;;;;;;;;;;5041995;28;20045;-80
2022/05/18 14:21:19;;;;;;;0.22;0.10;;;;;;;;;;5042020;28;20032;-80
2022/05/18 14:23:45;;;;;;;;;;;;;;;;;;5026501;28;20028;-80
2022/05/18 14:26:14;;;;;;;1.45;0.80;;;;;;;;;;5041776;28;19927;-80
2022/05/18 14:28:46;;;;;;;0.00;0.00;;;;;;;;;;5041092;28;20644;-80
2022/05/18 14:31:14;;;;;;;0.00;0.00;;;;;;;;;;5041821;28;20140;-80
2022/05/18 14:33:42;;;;;;;0.65;0.43;;;;;;;;;;5041966;28;20564;-80
2022/05/18 14:36:31;;;;;;;0.73;0.20;;;;;;;;;;5024077;28;20938;-80
2022/05/18 14:38:59;;;;;;;0.17;0.13;;;;;;;;;;5030155;28;20051;-80
2022/05/18 14:41:26;;;;;;;7.03;0.50;;;;;;;;;;5028688;28;20040;-80
2022/05/18 14:43:56;;;;;;;0.52;0.52;;;;;;;;;;5042236;28;20054;-80
2022/05/18 14:46:32;;;;;;;0.10;0.05;;;;;;;;;;5023941;28;20088;-80
2022/05/18 14:49:01;;;;;;;0.30;0.30;;;;;;;;;;5042327;28;20507;-80
2022/05/18 14:51:27;;;;;;;0.65;0.25;;;;;;;;;;5024404;28;20517;-80
2022/05/18 14:53:53;;;;;;;0.40;0.22;;;;;;;;;;5042599;28;20032;-80
2022/05/18 14:56:19;;;;;;;0.43;0.15;;;;;;;;;;5041737;28;20031;-80
2022/05/18 14:58:51;;;;;;;4.38;0.93;;;;;;;;;;5023981;28;20072;-80
2022/05/18 15:01:31;;;;;;;0.28;0.28;;;;;;;;;;5042772;28;20614;-80
2022/05/18 15:03:59;;;;;;;4.97;0.63;;;;;;;;;;5043057;28;20036;-80
2022/05/18 15:06:28;;;;;;;0.00;0.00;;;;;;;;;;5043210;28;20036;-80
2022/05/18 15:08:55;;;;;;;0.10;0.10;;;;;;;;;;5043795;28;20156;-80
2022/05/18 15:11:34;;;;;;;1.27;0.13;;;;;;;;;;5042989;28;20209;-80
2022/05/18 15:14:07;;;;;;;0.10;0.10;;;;;;;;;;5038103;28;20040;-80
2022/05/18 15:16:39;;;;;;;2.05;0.98;;;;;;;;;;5046222;28;20037;-80